Pagina principală
METAR-TAF:

METAR-TAF

Aeroporturi :

Magdalena, Bolivia

Latitudine: 13-20S, longitudine: 064-07W, elevație: 140 m

Observații meteo curente

Raportul a fost făcut în urmă cu 6 ore și 7 de minute, la 22:00 UTC
Vânt calm
Temperatură 31°C
Umiditate 59%
Presiune 1010 hPa
Vizibilitate de 10 km sau mai mult

METAR: SLMG 142200Z 00000KT 9999 NSC 31/22 Q1010

Ora: 00:07 (04:07 UTC)


TAF: lipsă

Observații și prognoze meteo pentru peste 4.000 de aeroporturi (rapoarte METAR și TAF).

Stațiile disponibile sunt reprezentate pe hartă prin puncte galbene și roșii.

Țineți indicatorul mouse-ului pe punctul dorit pentru a vedea denumirea stației.

Apoi, faceți clic pentru a vedea observațiile și prognozele meteorologice.

Pentru a schimba harta: Pentru mărire, faceți clic pe butoanele verzi cu cruce neagră; pentru micșorare, pe butonul verde cu o liniuță; pentru hărți învecinate, pe săgețile verzi.


METAR-TAF: